Time;durP1;ratioP1;P1;durP2;ratioP2;P2;SDS_P1;SDS_P2;PMS_P1;PMS_P2;Temp;Humidity;BMP_temperature;BMP_pressure;BME280_temperature;BME280_humidity;BME280_pressure;Samples;Min_cycle;Max_cycle;Signal;HPM_P1;HPM_P2
2022/04/15 00:02:10;;;;;;;15.90;11.45;;;;;;;10.90;76.86;100957.02;1765333;80;21061;-72
2022/04/15 00:04:36;;;;;;;14.35;10.72;;;;;;;10.89;76.95;100963.34;1803075;78;20974;-72
2022/04/15 00:07:03;;;;;;;15.70;11.75;;;;;;;10.87;77.08;100964.50;1790556;79;21109;-72
2022/04/15 00:09:30;;;;;;;13.60;11.38;;;;;;;10.88;77.15;100963.48;1828022;78;21061;-72
2022/04/15 00:12:00;;;;;;;17.07;12.25;;;;;;;10.87;77.21;100961.84;1793896;79;21019;-72
2022/04/15 00:14:25;;;;;;;18.45;12.47;;;;;;;10.85;77.31;100961.14;1828284;78;21009;-72
2022/04/15 00:16:51;;;;;;;17.17;12.68;;;;;;;10.82;77.38;100956.13;1791016;79;21400;-72
2022/04/15 00:19:17;;;;;;;15.30;11.88;;;;;;;10.80;77.46;100962.13;1826071;78;20949;-72
2022/04/15 00:21:43;;;;;;;14.95;11.93;;;;;;;10.78;77.53;100962.27;1793698;80;21044;-72
2022/04/15 00:24:09;;;;;;;17.75;12.40;;;;;;;10.77;77.63;100966.41;1828125;78;21010;-72
2022/04/15 00:26:35;;;;;;;18.98;12.37;;;;;;;10.76;77.71;100968.77;1792049;79;21022;-72
2022/04/15 00:29:03;;;;;;;19.27;13.50;;;;;;;10.74;77.77;100972.07;1823126;78;21450;-72
2022/04/15 00:31:29;;;;;;;14.65;11.53;;;;;;;10.70;77.85;100972.04;1800043;78;20996;-72
2022/04/15 00:33:55;;;;;;;14.50;11.60;;;;;;;10.66;77.89;100962.18;1793669;80;21174;-72
2022/04/15 00:36:21;;;;;;;15.00;12.43;;;;;;;10.62;77.96;100941.33;1826881;78;20937;-72
2022/04/15 00:38:47;;;;;;;28.45;14.95;;;;;;;10.59;78.03;100942.46;1759382;80;21003;-72
2022/04/15 00:41:15;;;;;;;17.73;13.15;;;;;;;10.57;78.09;100944.95;1760325;81;21030;-72
2022/04/15 00:43:41;;;;;;;16.25;12.35;;;;;;;10.53;78.14;100945.27;1758955;81;21577;-72
2022/04/15 00:46:08;;;;;;;18.10;13.08;;;;;;;10.51;78.17;100937.94;1753869;81;21903;-71
2022/04/15 00:48:36;;;;;;;18.30;13.35;;;;;;;10.48;78.23;100936.88;1772041;80;21078;-72
2022/04/15 00:51:04;;;;;;;23.47;15.28;;;;;;;10.46;78.25;100932.22;1767196;80;22209;-72
2022/04/15 00:53:31;;;;;;;19.23;15.75;;;;;;;10.43;78.33;100930.36;1770265;80;21034;-72
2022/04/15 00:55:59;;;;;;;17.95;14.63;;;;;;;10.42;78.36;100932.19;1791423;80;21057;-72
2022/04/15 00:58:25;;;;;;;15.32;13.08;;;;;;;10.41;78.45;100926.50;1791770;79;21332;-72
2022/04/15 01:00:56;;;;;;;16.15;12.73;;;;;;;10.40;78.45;100924.02;1789024;80;21499;-72
2022/04/15 01:03:21;;;;;;;22.50;14.58;;;;;;;10.30;78.48;100934.78;1788515;79;21098;-72
2022/04/15 01:05:51;;;;;;;22.67;16.23;;;;;;;10.22;78.53;100929.38;1761021;80;21014;-72
2022/04/15 01:08:19;;;;;;;;;;;;;;;10.17;78.54;100930.84;1793268;80;21086;-72
2022/04/15 01:10:45;;;;;;;18.27;12.73;;;;;;;10.15;78.59;100920.33;1781586;80;21142;-72
2022/04/15 01:13:11;;;;;;;17.20;13.05;;;;;;;10.16;78.62;100919.34;1784502;80;21030;-72
2022/04/15 01:15:37;;;;;;;16.95;11.75;;;;;;;10.17;78.61;100918.33;1790658;80;20999;-72
2022/04/15 01:18:03;;;;;;;15.72;11.83;;;;;;;10.19;78.63;100929.69;1791547;80;21015;-73
2022/04/15 01:20:29;;;;;;;17.27;13.13;;;;;;;10.15;78.65;100938.14;1769528;80;21577;-72
2022/04/15 01:23:08;;;;;;;16.35;12.70;;;;;;;10.09;78.66;100939.57;1774454;80;21709;-72
2022/04/15 01:25:34;;;;;;;15.53;12.80;;;;;;;10.10;78.66;100935.08;1790914;80;21081;-72
2022/04/15 01:28:00;;;;;;;15.43;12.25;;;;;;;10.14;78.74;100932.42;1791830;79;21022;-72
2022/04/15 01:30:26;;;;;;;15.30;12.60;;;;;;;10.17;78.73;100934.31;1791739;80;21007;-72
2022/04/15 01:32:52;;;;;;;18.75;13.83;;;;;;;10.19;78.76;100935.02;1777571;80;20888;-72
2022/04/15 01:35:19;;;;;;;20.45;14.87;;;;;;;10.20;78.74;100936.70;1769460;80;21107;-72
2022/04/15 01:37:49;;;;;;;21.00;15.50;;;;;;;10.23;78.76;100938.22;1789530;79;21455;-72
2022/04/15 01:40:17;;;;;;;21.77;15.10;;;;;;;10.21;78.79;100943.69;1792830;80;26675;-72
2022/04/15 01:42:44;;;;;;;21.95;16.42;;;;;;;10.16;78.80;100943.33;1785098;80;21047;-72
2022/04/15 01:45:11;;;;;;;22.90;17.92;;;;;;;10.15;78.83;100944.80;1761325;80;21034;-72
2022/04/15 01:47:37;;;;;;;26.87;20.65;;;;;;;10.15;78.87;100952.80;1761434;81;21140;-72
2022/04/15 01:50:04;;;;;;;26.27;19.80;;;;;;;10.13;78.92;100948.94;1761401;81;21002;-72
2022/04/15 01:52:30;;;;;;;31.12;20.90;;;;;;;10.12;78.98;100940.59;1772899;80;21054;-72
2022/04/15 01:54:56;;;;;;;29.20;19.85;;;;;;;10.12;79.02;100927.27;1774685;80;21497;-72
2022/04/15 01:57:22;;;;;;;28.92;20.82;;;;;;;10.13;79.07;100923.62;1763291;80;21050;-72
2022/04/15 01:59:48;;;;;;;37.95;22.02;;;;;;;10.11;79.13;100929.58;1761501;81;21818;-72
2022/04/15 05:24:53;;;;;;;26.95;20.43;;;;;;;10.76;82.41;100935.42;1762205;80;21031;-72
2022/04/15 05:27:20;;;;;;;27.13;20.70;;;;;;;10.78;82.41;100933.42;1761220;81;21122;-72
2022/04/15 05:29:46;;;;;;;28.85;21.55;;;;;;;10.77;82.41;100933.06;1743283;81;21074;-72
2022/04/15 05:32:12;;;;;;;27.55;20.52;;;;;;;10.78;82.40;100934.75;1754737;81;20897;-72
2022/04/15 05:34:37;;;;;;;29.45;20.10;;;;;;;10.80;82.41;100934.11;1754347;81;21098;-72
2022/04/15 05:37:04;;;;;;;25.85;20.37;;;;;;;10.82;82.41;100936.95;1758087;81;20884;-72
2022/04/15 05:39:30;;;;;;;27.02;19.80;;;;;;;10.86;82.42;100942.31;1762248;81;21061;-72
2022/04/15 05:41:56;;;;;;;26.93;20.52;;;;;;;10.90;82.39;100938.84;1748862;81;21043;-72
2022/04/15 05:44:22;;;;;;;29.35;21.40;;;;;;;10.92;82.40;100943.50;1732016;82;20892;-72
2022/04/15 05:46:48;;;;;;;26.17;18.75;;;;;;;11.00;82.39;100944.89;1736827;81;21486;-72
2022/04/15 05:49:15;;;;;;;25.37;20.02;;;;;;;11.06;82.39;100948.25;1762482;81;21482;-73
2022/04/15 05:51:42;;;;;;;23.32;19.15;;;;;;;11.05;82.35;100943.89;1760481;81;20996;-72
2022/04/15 05:54:08;;;;;;;24.90;19.62;;;;;;;11.02;82.33;100943.72;1732774;81;21039;-72
2022/04/15 05:56:34;;;;;;;23.77;18.90;;;;;;;11.01;82.31;100942.56;1732210;82;21515;-72
2022/04/15 05:59:00;;;;;;;25.75;20.48;;;;;;;11.01;82.31;100949.23;1732373;82;22060;-72
2022/04/15 06:01:26;;;;;;;26.50;19.90;;;;;;;11.01;82.28;100958.58;1732206;82;21605;-72
2022/04/15 06:03:52;;;;;;;26.40;18.77;;;;;;;11.03;82.24;100955.23;1728055;81;21074;-72
2022/04/15 06:06:18;;;;;;;25.48;19.30;;;;;;;11.06;82.25;100953.58;1715285;82;21035;-72
2022/04/15 06:08:44;;;;;;;26.15;19.35;;;;;;;11.12;82.22;100960.95;1733393;81;21043;-72
2022/04/15 06:11:10;;;;;;;28.23;18.60;;;;;;;11.14;82.19;100960.80;1739999;81;21085;-72
2022/04/15 06:13:41;;;;;;;28.12;19.60;;;;;;;11.21;82.18;100962.67;1732723;81;20920;-72
2022/04/15 06:16:08;;;;;;;22.75;18.25;;;;;;;11.30;82.18;100960.86;1739482;81;21036;-72
2022/04/15 06:18:36;;;;;;;26.17;19.02;;;;;;;11.39;82.11;100970.59;1740030;81;21454;-72
2022/04/15 06:21:01;;;;;;;23.98;17.98;;;;;;;11.43;82.04;100970.08;1736288;81;21010;-72
2022/04/15 06:23:27;;;;;;;25.23;17.62;;;;;;;11.42;81.99;100975.11;1739418;80;21136;-72
2022/04/15 06:25:53;;;;;;;23.98;17.75;;;;;;;11.45;81.97;100978.80;1743085;81;20979;-72
2022/04/15 06:28:21;;;;;;;26.77;17.50;;;;;;;11.58;81.94;100979.66;1738296;81;21593;-72
2022/04/15 06:30:50;;;;;;;20.75;16.10;;;;;;;11.71;81.89;100983.25;1748018;81;21003;-72
2022/04/15 06:33:17;;;;;;;26.17;17.23;;;;;;;12.00;81.82;100983.63;1750855;80;21022;-72
2022/04/15 06:35:43;;;;;;;23.73;15.90;;;;;;;12.21;81.70;100982.65;1738607;80;21014;-71
2022/04/15 06:38:09;;;;;;;21.35;15.53;;;;;;;12.22;81.54;100983.00;1738483;80;21043;-71
2022/04/15 06:40:38;;;;;;;16.65;13.43;;;;;;;12.03;81.35;100981.98;1734582;82;21069;-71
2022/04/15 06:43:04;;;;;;;17.70;13.70;;;;;;;11.89;81.22;100987.98;1730196;80;21008;-72
2022/04/15 06:45:30;;;;;;;23.07;16.40;;;;;;;11.78;81.10;100986.95;1721561;82;21023;-71
2022/04/15 06:47:56;;;;;;;16.57;13.80;;;;;;;11.69;80.96;100990.05;1742178;80;21172;-71
2022/04/15 06:50:22;;;;;;;19.52;14.05;;;;;;;11.61;80.84;100995.36;1742373;82;20982;-71
2022/04/15 06:52:48;;;;;;;20.57;14.35;;;;;;;11.53;80.72;100998.02;1742747;81;21054;-71
2022/04/15 06:55:14;;;;;;;22.25;14.38;;;;;;;11.50;80.63;100988.47;1739099;80;21050;-71
2022/04/15 06:57:40;;;;;;;20.50;13.90;;;;;;;11.46;80.52;100992.49;1729730;82;21488;-71
2022/04/15 07:00:08;;;;;;;18.42;13.75;;;;;;;11.41;80.43;100990.79;1730537;82;21102;-71
2022/04/15 07:02:35;;;;;;;22.37;15.25;;;;;;;11.37;80.35;100981.42;1742060;81;21035;-71
2022/04/15 07:05:09;;;;;;;18.45;13.05;;;;;;;11.36;80.25;100978.93;1741055;82;21559;-70
2022/04/15 07:07:38;;;;;;;17.50;12.80;;;;;;;11.33;80.18;100984.07;1740494;82;20995;-71
2022/04/15 07:10:10;;;;;;;23.22;15.05;;;;;;;11.35;80.12;100993.27;1738237;82;21089;-71
2022/04/15 07:12:37;;;;;;;19.87;14.53;;;;;;;11.36;80.04;100996.28;1742357;82;21103;-71
2022/04/15 07:15:03;;;;;;;22.98;13.43;;;;;;;11.38;79.99;100992.45;1736144;81;21018;-71
2022/04/15 07:17:29;;;;;;;19.52;13.13;;;;;;;11.39;79.94;100994.62;1734614;82;21041;-71
2022/04/15 07:19:56;;;;;;;21.52;13.62;;;;;;;11.41;79.89;100996.13;1742624;82;21047;-72
2022/04/15 07:22:22;;;;;;;22.13;16.55;;;;;;;11.41;79.81;100990.79;1742199;82;20983;-71
2022/04/15 07:24:49;;;;;;;24.55;15.88;;;;;;;11.52;79.81;100999.02;1737201;81;21166;-72
2022/04/15 07:27:15;;;;;;;18.07;14.63;;;;;;;11.68;79.77;101002.25;1732133;82;21000;-71
2022/04/15 07:29:41;;;;;;;17.77;13.35;;;;;;;11.76;79.68;101002.29;1732227;82;21280;-72
2022/04/15 07:32:08;;;;;;;17.50;13.48;;;;;;;11.77;79.63;101003.47;1732188;82;21058;-72
2022/04/15 07:34:37;;;;;;;18.70;13.18;;;;;;;11.86;79.59;100997.14;1732161;82;21051;-71
2022/04/15 07:37:04;;;;;;;19.52;13.88;;;;;;;11.89;79.49;101000.81;1732544;82;21091;-72
2022/04/15 07:39:30;;;;;;;20.92;13.32;;;;;;;11.94;79.44;100994.98;1731958;82;21487;-72
2022/04/15 07:41:56;;;;;;;16.23;13.10;;;;;;;11.94;79.32;100999.00;1731940;82;21039;-72
2022/04/15 07:44:23;;;;;;;17.67;12.47;;;;;;;11.85;79.19;100995.98;1732162;82;21005;-71
2022/04/15 07:46:49;;;;;;;16.87;11.63;;;;;;;11.74;79.11;101001.62;1732209;82;21078;-71
2022/04/15 07:49:15;;;;;;;20.55;12.95;;;;;;;11.62;79.01;101003.72;1732213;82;21098;-72
2022/04/15 07:51:41;;;;;;;18.50;12.25;;;;;;;11.48;78.90;101006.51;1731621;82;20987;-72
2022/04/15 07:54:08;;;;;;;19.20;13.45;;;;;;;11.43;78.84;101004.80;1732233;82;21110;-72
2022/04/15 07:56:34;;;;;;;17.20;13.00;;;;;;;11.39;78.76;101007.48;1732101;82;21063;-71
2022/04/15 07:59:00;;;;;;;23.47;16.93;;;;;;;11.35;78.71;101014.63;1732155;82;21153;-71
2022/04/15 08:01:27;;;;;;;49.85;27.87;;;;;;;11.34;78.63;101011.13;1731976;81;21517;-72
2022/04/15 08:03:55;;;;;;;24.95;14.23;;;;;;;11.37;78.56;101010.80;1732060;82;21098;-72
2022/04/15 08:06:22;;;;;;;18.57;11.73;;;;;;;11.35;78.44;101008.80;1731593;82;21527;-72
2022/04/15 08:08:54;;;;;;;24.87;12.58;;;;;;;11.31;78.31;101018.12;1731901;82;21488;-71
2022/04/15 08:11:18;;;;;;;31.20;16.35;;;;;;;11.32;78.23;101013.13;1732087;81;21086;-72
2022/04/15 08:13:45;;;;;;;20.10;12.18;;;;;;;11.38;78.10;101015.15;1731938;82;21035;-71
2022/04/15 08:16:11;;;;;;;25.95;13.50;;;;;;;11.52;77.96;101015.03;1732209;82;21039;-71
2022/04/15 08:18:37;;;;;;;17.57;11.55;;;;;;;11.58;77.77;101020.22;1732063;82;20972;-72
2022/04/15 08:21:02;;;;;;;21.07;11.57;;;;;;;11.53;77.63;101021.57;1731985;82;21042;-72
2022/04/15 08:23:29;;;;;;;17.12;11.00;;;;;;;11.51;77.47;101022.70;1732132;80;21551;-72
2022/04/15 08:25:55;;;;;;;17.67;11.55;;;;;;;11.51;77.34;101030.22;1732135;82;21903;-71
2022/04/15 08:28:21;;;;;;;14.60;10.03;;;;;;;11.62;77.24;101029.59;1732009;82;21047;-72
2022/04/15 08:30:47;;;;;;;17.65;9.50;;;;;;;11.73;77.11;101030.17;1732030;82;21247;-72
2022/04/15 08:33:13;;;;;;;14.10;9.60;;;;;;;11.82;76.93;101031.05;1696906;84;21098;-72
2022/04/15 08:35:39;;;;;;;13.72;9.30;;;;;;;11.91;76.82;101038.08;1742036;82;21058;-72
2022/04/15 08:38:05;;;;;;;13.48;9.10;;;;;;;11.97;76.68;101035.59;1732427;82;21094;-72
2022/04/15 08:40:32;;;;;;;15.48;10.53;;;;;;;12.03;76.49;101028.25;1723465;82;21047;-72
2022/04/15 08:43:00;;;;;;;12.23;9.68;;;;;;;12.08;76.34;101031.77;1714214;82;21099;-71
2022/04/15 08:45:27;;;;;;;14.10;9.65;;;;;;;12.09;76.16;101037.96;1707537;82;21011;-72
2022/04/15 08:47:59;;;;;;;13.40;8.50;;;;;;;12.10;75.97;101035.14;1711764;82;21007;-66
2022/04/15 08:50:26;;;;;;;22.17;12.75;;;;;;;12.08;75.83;101035.78;1693972;83;21653;-66
2022/04/15 08:52:53;;;;;;;18.77;11.68;;;;;;;12.17;75.70;101034.81;1693240;83;21109;-66
2022/04/15 08:55:21;;;;;;;13.95;9.75;;;;;;;12.26;75.54;101031.64;1696478;83;21602;-66
2022/04/15 08:57:51;;;;;;;16.02;9.98;;;;;;;12.22;75.36;101036.48;1727190;81;21551;-66
2022/04/15 09:00:18;;;;;;;;;;;;;;;12.18;75.24;101039.14;1699556;83;21053;-66
2022/04/15 09:02:45;;;;;;;13.05;9.35;;;;;;;12.22;75.13;101039.16;1697258;83;21806;-66
2022/04/15 09:05:13;;;;;;;19.10;12.43;;;;;;;12.34;75.01;101038.34;1694305;83;21021;-66
2022/04/15 09:07:39;;;;;;;18.07;12.28;;;;;;;12.31;74.82;101045.36;1685815;83;21051;-65
2022/04/15 09:10:07;;;;;;;15.78;9.68;;;;;;;12.41;74.75;101040.19;1692120;83;21110;-66
2022/04/15 09:12:35;;;;;;;10.80;9.00;;;;;;;12.37;74.56;101048.21;1696967;83;21084;-66
2022/04/15 09:15:11;;;;;;;14.20;8.95;;;;;;;12.31;74.39;101042.69;1690505;83;21501;-66
2022/04/15 09:17:40;;;;;;;14.87;9.00;;;;;;;12.25;74.21;101040.66;1697407;83;21457;-72
2022/04/15 09:20:08;;;;;;;13.75;9.40;;;;;;;12.10;74.11;101049.00;1692284;83;21041;-72
2022/04/15 09:22:34;;;;;;;30.88;16.25;;;;;;;11.98;73.99;101057.81;1687400;83;21040;-72
2022/04/15 09:25:00;;;;;;;18.35;12.58;;;;;;;11.79;73.85;101055.41;1677155;84;21052;-72
2022/04/15 09:27:26;;;;;;;20.82;11.53;;;;;;;11.50;73.67;101065.13;1677776;85;21199;-72
2022/04/15 09:29:54;;;;;;;26.62;15.25;;;;;;;11.14;73.63;101064.91;1674955;85;21143;-72
2022/04/15 09:32:22;;;;;;;26.65;14.10;;;;;;;10.96;73.60;101064.95;1668778;85;21003;-72
2022/04/15 09:35:05;;;;;;;22.85;13.93;;;;;;;10.86;73.59;101069.06;1707666;81;21055;-72
2022/04/15 09:37:39;;;;;;;25.23;14.35;;;;;;;10.74;73.52;101075.62;1722786;81;21054;-71
2022/04/15 09:40:15;;;;;;;24.55;13.05;;;;;;;10.59;73.50;101085.67;1722090;82;21004;-72
2022/04/15 09:42:52;;;;;;;19.32;13.50;;;;;;;10.44;73.49;101079.54;1720173;81;21554;-72
2022/04/15 09:45:22;;;;;;;31.62;16.17;;;;;;;10.32;73.52;101082.56;1723730;81;21472;-72
2022/04/15 09:47:53;;;;;;;22.33;14.70;;;;;;;10.22;73.56;101087.97;1719843;81;21071;-72
2022/04/15 09:50:37;;;;;;;17.37;12.58;;;;;;;10.13;73.61;101088.02;1688798;83;21706;-71
2022/04/15 09:53:14;;;;;;;22.98;14.87;;;;;;;9.94;73.66;101092.95;1684860;82;21475;-71
2022/04/15 09:55:43;;;;;;;20.02;12.07;;;;;;;9.83;73.79;101090.48;1721149;82;21054;-71
2022/04/15 09:58:11;;;;;;;21.23;13.10;;;;;;;9.81;73.85;101093.80;1719262;81;21051;-71
2022/04/15 10:00:39;;;;;;;19.00;13.15;;;;;;;9.81;73.95;101097.80;1725752;81;21251;-72
2022/04/15 10:03:11;;;;;;;22.75;13.22;;;;;;;9.84;74.02;101098.83;1720262;81;21025;-71
2022/04/15 10:05:38;;;;;;;24.37;14.28;;;;;;;9.89;74.12;101100.54;1721280;81;21775;-71
2022/04/15 10:08:05;;;;;;;20.25;13.10;;;;;;;9.94;74.19;101098.28;1724064;81;21087;-71
2022/04/15 10:10:35;;;;;;;24.87;13.90;;;;;;;10.09;74.28;101101.29;1702536;82;21894;-71
2022/04/15 10:13:04;;;;;;;19.10;12.20;;;;;;;10.27;74.35;101101.70;1652183;85;21062;-71
2022/04/15 10:15:31;;;;;;;19.07;12.20;;;;;;;10.43;74.37;101097.02;1723205;81;20995;-71
2022/04/15 10:17:59;;;;;;;15.90;10.20;;;;;;;10.57;74.40;101100.48;1690761;82;21133;-71
2022/04/15 10:20:28;;;;;;;14.58;8.78;;;;;;;10.80;74.43;101094.20;1685779;82;21069;-71
2022/04/15 10:23:02;;;;;;;12.35;7.95;;;;;;;10.99;74.42;101096.66;1693311;83;21486;-71
2022/04/15 10:25:29;;;;;;;13.48;7.53;;;;;;;11.26;74.39;101092.50;1632869;85;21059;-71
2022/04/15 10:28:09;;;;;;;7.83;5.15;;;;;;;11.41;74.27;101097.62;1654762;84;21558;-71
2022/04/15 10:30:35;;;;;;;9.53;5.08;;;;;;;11.45;74.15;101096.31;1739974;81;21170;-71
2022/04/15 10:33:01;;;;;;;9.63;6.40;;;;;;;11.52;74.02;101089.34;1715290;82;21006;-72
2022/04/15 10:35:31;;;;;;;9.25;5.47;;;;;;;11.67;73.87;101094.08;1689626;84;21006;-71
2022/04/15 10:38:03;;;;;;;9.30;5.60;;;;;;;11.91;73.64;101092.88;1732217;81;21472;-71
2022/04/15 10:40:31;;;;;;;7.35;5.55;;;;;;;12.09;73.44;101097.63;1731884;82;21050;-71
2022/04/15 10:43:21;;;;;;;9.50;5.45;;;;;;;12.00;73.08;101099.42;1731281;82;21811;-71
2022/04/15 10:45:47;;;;;;;9.88;5.30;;;;;;;11.73;72.79;101099.66;1674958;84;21011;-71
2022/04/15 10:48:13;;;;;;;8.63;5.00;;;;;;;11.41;72.60;101104.30;1673716;84;21615;-71
2022/04/15 10:50:41;;;;;;;7.70;4.97;;;;;;;11.17;72.38;101107.30;1674495;85;21445;-72
2022/04/15 10:53:24;;;;;;;7.50;4.42;;;;;;;10.93;72.24;101109.30;1706205;82;21023;-71
2022/04/15 10:55:52;;;;;;;5.47;3.05;;;;;;;10.78;72.17;101110.83;1705730;82;21156;-71
2022/04/15 10:58:19;;;;;;;4.85;2.90;;;;;;;10.62;72.04;101110.70;1674558;85;21397;-71
2022/04/15 11:03:32;;;;;;;7.97;5.50;;;;;;;10.33;71.90;101118.42;1696438;84;21045;-71
2022/04/15 11:05:59;;;;;;;5.58;4.08;;;;;;;10.30;71.88;101114.73;1696475;84;21027;-71
2022/04/15 11:08:27;;;;;;;8.15;4.22;;;;;;;10.36;71.89;101113.27;1696718;84;21328;-71
2022/04/15 11:10:58;;;;;;;4.72;3.30;;;;;;;10.47;71.86;101115.72;1696193;83;21030;-71
2022/04/15 11:13:44;;;;;;;8.28;3.83;;;;;;;10.59;71.84;101126.49;1727712;82;21038;-71
2022/04/15 11:16:14;;;;;;;6.28;3.22;;;;;;;10.66;71.83;101121.41;1733138;81;21429;-71
2022/04/15 11:18:52;;;;;;;21.20;8.33;;;;;;;10.80;71.82;101119.54;1695160;84;21011;-71
2022/04/15 11:21:22;;;;;;;9.90;4.08;;;;;;;10.92;71.77;101127.63;1730660;82;21403;-71
2022/04/15 11:23:52;;;;;;;7.35;3.80;;;;;;;11.01;71.70;101121.38;1730949;82;21006;-71
2022/04/15 11:26:22;;;;;;;5.92;3.47;;;;;;;11.14;71.65;101123.64;1701137;83;21734;-72
2022/04/15 11:28:50;;;;;;;6.92;4.35;;;;;;;11.31;71.58;101119.59;1707956;82;21501;-71
2022/04/15 11:31:26;;;;;;;8.58;4.67;;;;;;;11.63;71.57;101122.11;1742352;81;21047;-71
2022/04/15 11:33:53;;;;;;;8.25;3.55;;;;;;;12.05;71.50;101116.32;1712735;83;21166;-72
2022/04/15 11:36:21;;;;;;;5.67;2.90;;;;;;;12.47;71.35;101113.09;1727500;82;21030;-71
2022/04/15 11:38:48;;;;;;;7.97;5.22;;;;;;;12.57;71.05;101110.75;1737053;82;21564;-72
2022/04/15 11:41:21;;;;;;;6.10;3.37;;;;;;;12.53;70.83;101109.75;1702787;83;21050;-72
2022/04/15 11:43:57;;;;;;;19.02;11.00;;;;;;;12.43;70.65;101111.73;1703760;83;21541;-72
2022/04/15 11:46:23;;;;;;;7.35;5.33;;;;;;;12.37;70.45;101109.73;1708597;83;21640;-72
2022/04/15 11:48:50;;;;;;;6.87;4.62;;;;;;;12.25;70.16;101113.70;1707163;83;21489;-72
2022/04/15 11:51:23;;;;;;;8.90;5.42;;;;;;;12.14;70.02;101107.31;1716913;82;21065;-72
2022/04/15 11:53:45;;;;;;;5.65;4.10;;;;;;;12.11;69.87;101111.66;1727693;80;21067;-72
2022/04/15 11:56:10;;;;;;;7.83;4.72;;;;;;;11.99;69.70;101116.98;1738358;82;20931;-72
2022/04/15 11:58:38;;;;;;;28.17;10.63;;;;;;;11.77;69.49;101125.06;1741038;81;21091;-71
2022/04/15 12:01:04;;;;;;;15.75;5.92;;;;;;;11.52;69.37;101126.73;1711106;82;21110;-71
2022/04/15 12:03:30;;;;;;;12.50;6.62;;;;;;;11.25;69.31;101116.22;1735364;82;21021;-72
2022/04/15 12:05:59;;;;;;;6.42;4.05;;;;;;;11.10;69.25;101128.94;1765725;80;20996;-72
2022/04/15 12:08:27;;;;;;;5.20;3.50;;;;;;;10.91;69.15;101127.28;1737105;81;21073;-72
2022/04/15 12:10:53;;;;;;;10.25;5.08;;;;;;;10.76;69.11;101132.84;1681800;83;21124;-72
2022/04/15 12:13:19;;;;;;;6.08;4.08;;;;;;;10.76;69.07;101138.17;1700218;83;21645;-72
2022/04/15 12:15:46;;;;;;;9.20;4.80;;;;;;;10.83;69.03;101136.08;1703064;84;20978;-72
2022/04/15 12:18:12;;;;;;;14.70;7.40;;;;;;;11.02;69.00;101135.05;1703320;83;21096;-72
2022/04/15 12:20:39;;;;;;;28.12;18.57;;;;;;;11.20;68.94;101135.86;1703927;84;21021;-72
2022/04/15 12:23:07;;;;;;;7.37;5.65;;;;;;;11.26;68.80;101131.22;1701934;83;21043;-72
2022/04/15 12:31:03;;;;;;;5.92;4.08;;;;;;;11.37;68.41;101132.30;1641921;85;21091;-72
2022/04/15 12:33:30;;;;;;;7.28;4.70;;;;;;;11.45;68.28;101133.70;1660443;84;21482;-72
2022/04/15 12:36:04;;;;;;;5.60;4.95;;;;;;;11.49;68.14;101131.06;1665070;86;21179;-72
2022/04/15 12:38:32;;;;;;;10.08;5.15;;;;;;;11.40;67.97;101133.32;1671312;85;21017;-72
2022/04/15 12:41:02;;;;;;;6.50;4.92;;;;;;;11.23;67.85;101142.22;1650983;85;21031;-72
2022/04/15 12:43:28;;;;;;;;;;;;;;;11.16;67.79;101146.50;1710988;83;21039;-72
2022/04/15 12:45:55;;;;;;;7.33;5.30;;;;;;;11.07;67.74;101143.94;1704676;83;20168;-72
2022/04/15 12:48:22;;;;;;;10.82;6.33;;;;;;;10.96;67.71;101144.52;1708301;84;21166;-72
2022/04/15 12:50:58;;;;;;;12.55;6.35;;;;;;;10.90;67.74;101142.97;1709572;83;21014;-73
2022/04/15 12:53:26;;;;;;;7.00;5.47;;;;;;;10.84;67.69;101142.23;1705294;83;21522;-72
2022/04/15 12:55:56;;;;;;;11.70;7.55;;;;;;;10.77;67.71;101146.50;1697634;83;21129;-72
2022/04/15 12:58:24;;;;;;;12.05;8.23;;;;;;;10.71;67.76;101151.13;1704134;83;26427;-72
2022/04/15 13:00:53;;;;;;;23.02;13.00;;;;;;;10.69;67.79;101150.45;1708270;82;22153;-72
2022/04/15 13:03:20;;;;;;;8.88;6.37;;;;;;;10.70;67.87;101152.10;1699332;82;21581;-72
2022/04/15 13:05:47;;;;;;;8.88;6.30;;;;;;;10.67;67.90;101155.08;1699780;82;21086;-72
2022/04/15 13:08:20;;;;;;;10.93;6.28;;;;;;;10.60;67.96;101147.34;1694495;83;21195;-72
2022/04/15 13:10:43;;;;;;;11.30;6.57;;;;;;;10.57;68.03;101155.65;1708847;82;21050;-72
2022/04/15 13:13:10;;;;;;;10.23;7.08;;;;;;;10.56;68.13;101156.63;1707526;82;21483;-72
2022/04/15 13:15:37;;;;;;;14.55;6.97;;;;;;;10.63;68.18;101157.21;1712530;81;21098;-72
2022/04/15 13:18:04;;;;;;;6.78;5.40;;;;;;;10.77;68.25;101151.84;1689423;83;21044;-72
2022/04/15 13:20:30;;;;;;;7.78;5.78;;;;;;;10.95;68.29;101147.33;1715866;81;21451;-72
2022/04/15 13:22:56;;;;;;;6.08;4.97;;;;;;;11.07;68.31;101157.28;1728643;82;21539;-72
2022/04/15 13:25:23;;;;;;;9.73;5.92;;;;;;;11.13;68.25;101149.49;1697394;81;21573;-72
2022/04/15 13:27:49;;;;;;;11.22;6.30;;;;;;;11.08;68.23;101150.96;1718169;82;21052;-72
2022/04/15 13:30:15;;;;;;;10.43;6.37;;;;;;;11.02;68.26;101150.57;1720102;81;21495;-72
2022/04/15 13:32:41;;;;;;;7.33;4.95;;;;;;;11.01;68.25;101148.08;1720024;81;21741;-72
2022/04/15 13:35:07;;;;;;;7.37;4.95;;;;;;;11.05;68.25;101157.95;1712363;81;21707;-72
2022/04/15 13:37:34;;;;;;;8.30;4.65;;;;;;;11.07;68.23;101155.45;1726261;83;21505;-72
2022/04/15 13:40:01;;;;;;;18.37;14.87;;;;;;;11.03;68.18;101152.26;1713896;82;21583;-72
2022/04/15 13:42:28;;;;;;;16.82;9.30;;;;;;;10.95;68.12;101162.02;1725689;82;21036;-72
2022/04/15 13:44:55;;;;;;;11.85;4.90;;;;;;;10.94;68.14;101155.83;1704049;83;21263;-72
2022/04/15 13:47:22;;;;;;;8.75;5.35;;;;;;;10.90;68.11;101163.83;1723482;82;21055;-72
2022/04/15 13:49:48;;;;;;;8.45;5.35;;;;;;;10.87;68.11;101154.77;1726065;83;21949;-71
2022/04/15 13:57:48;;;;;;;8.55;4.85;;;;;;;10.29;68.23;101169.02;1709680;82;21021;-72
2022/04/15 14:00:19;;;;;;;15.63;8.68;;;;;;;10.10;68.44;101181.59;1726043;83;21651;-72
2022/04/15 14:02:47;;;;;;;13.30;7.50;;;;;;;9.95;68.68;101182.56;1726820;81;21057;-71
2022/04/15 14:05:14;;;;;;;10.95;6.83;;;;;;;9.80;68.91;101187.52;1737546;81;21025;-71
2022/04/15 14:07:40;;;;;;;11.45;7.08;;;;;;;9.73;69.14;101190.91;1729182;82;21088;-71
2022/04/15 14:10:07;;;;;;;11.93;8.40;;;;;;;9.69;69.38;101192.18;1729593;82;20983;-71
2022/04/15 14:12:35;;;;;;;11.48;7.60;;;;;;;9.74;69.63;101189.94;1738831;82;20991;-71
2022/04/15 14:15:02;;;;;;;18.35;9.30;;;;;;;9.82;69.88;101192.69;1734429;82;21750;-71
2022/04/15 14:17:28;;;;;;;11.43;7.55;;;;;;;9.87;70.11;101191.77;1731547;82;20999;-72
2022/04/15 14:19:54;;;;;;;16.20;10.15;;;;;;;9.92;70.33;101189.52;1734730;82;21103;-71
2022/04/15 14:22:21;;;;;;;17.73;9.53;;;;;;;9.93;70.54;101193.84;1734728;82;21012;-71
2022/04/15 14:24:48;;;;;;;14.35;8.60;;;;;;;9.93;70.72;101191.18;1727532;82;21505;-71
2022/04/15 14:27:15;;;;;;;7.33;5.72;;;;;;;9.90;70.91;101196.80;1718608;82;21515;-71
2022/04/15 14:29:41;;;;;;;9.73;6.33;;;;;;;9.86;71.11;101192.75;1713211;83;21004;-71
2022/04/15 14:32:07;;;;;;;9.90;6.85;;;;;;;9.74;71.29;101195.27;1715033;83;20998;-71
2022/04/15 14:34:33;;;;;;;12.70;6.58;;;;;;;9.65;71.47;101205.44;1715687;83;21035;-72
2022/04/15 14:36:59;;;;;;;13.95;8.98;;;;;;;9.49;71.66;101189.58;1714463;82;21003;-72
2022/04/15 14:39:25;;;;;;;10.53;8.05;;;;;;;9.43;71.83;101194.61;1714065;83;21029;-72
2022/04/15 14:41:54;;;;;;;10.98;7.37;;;;;;;9.39;72.01;101194.58;1704410;83;21057;-72
2022/04/15 14:44:21;;;;;;;10.75;7.25;;;;;;;9.36;72.17;101204.16;1712110;83;21075;-72
2022/04/15 14:46:47;;;;;;;7.67;5.60;;;;;;;9.31;72.35;101199.77;1715081;83;21058;-72
2022/04/15 14:49:13;;;;;;;9.33;6.80;;;;;;;9.27;72.50;101207.67;1714503;82;20931;-71
2022/04/15 14:51:39;;;;;;;10.98;7.40;;;;;;;9.23;72.66;101198.30;1715821;82;21125;-71
2022/04/15 14:54:05;;;;;;;8.30;7.20;;;;;;;9.20;72.84;101199.91;1717255;82;21040;-71
2022/04/15 14:56:31;;;;;;;8.78;7.33;;;;;;;9.24;73.03;101206.15;1723411;82;21013;-71